Crystal Island — 3EZJ3 — position and weather

sailwx.info

Track history (hours):
 
Tides and Currents Weather Stations Pressure Air Temp Water Temp Dewpoint Dewpoint Depression Visibility Wind Speed Wind Dir Waves Ship Positions

Crystal Island

Last reported at 2016-Jun-27 23:32 UTC. Time now 2016-Jun-28 16:59 UTC.
Position N 35°39' W 009°02'.

Length 169 m; draft 9.4 m.

Type: Ship. MMSI: 372562000.

Date/timePositionNaut miles runAvg speedWind from/ knotsBaromVisibWave heightAir tempDewpointWater temp
2016-Jun-27 23:32N 35°39' W 009°02'1212.2
2016-Jun-27 22:33N 35°49' W 009°09'1211.7
2016-Jun-27 21:33N 35°59' W 009°17'1212.0
2016-Jun-27 20:33N 36°09' W 009°25'1211.9
2016-Jun-27 19:33N 36°19' W 009°33'1212.0
2016-Jun-27 18:34N 36°29' W 009°41'1212.0
2016-Jun-27 17:33N 36°41' W 009°43'1312.4
2016-Jun-27 16:32N 36°54' W 009°45'1111.7
2016-Jun-27 15:33N 37°05' W 009°48'1212.2
2016-Jun-27 14:33N 37°17' W 009°50'1212.4
2016-Jun-27 13:33N 37°29' W 009°53'1212.2
2016-Jun-27 12:33N 37°41' W 009°55'1212.0
2016-Jun-27 11:33N 37°53' W 009°57'1212.2
2016-Jun-27 10:33N 38°05' W 009°59'1212.3
2016-Jun-27 09:33N 38°17' W 010°02'1212.1
2016-Jun-27 08:33N 38°29' W 010°04'1212.4
2016-Jun-27 07:33N 38°42' W 010°07'1212.0
2016-Jun-27 06:33N 38°53' W 010°07'1211.5
2016-Jun-27 05:33N 39°05' W 010°07'31910.6
2016-Jun-25 23:33N 44°08' W 007°53'1412.3
2016-Jun-25 22:27N 44°12' W 007°35'26512.1
2016-Jun-25 00:32N 45°32' W 001°39'1212.0
2016-Jun-24 23:31N 45°36' W 001°22'1313.0
2016-Jun-24 22:33N 45°36' W 001°04'1413.7
2016-Jun-24 21:33N 45°25' W 000°52'1211.9
2016-Jun-24 20:33N 45°15' W 000°45'1010.3
2016-Jun-24 19:33N 45°05' W 000°40'11 0.3
2016-Jun-23 07:31N 44°55' W 000°33'56 2.5
2016-Jun-22 09:22N 45°35' W 001°28'0 0.0
2016-Jun-22 08:28N 45°35' W 001°28'0 0.0
2016-Jun-22 07:31N 45°35' W 001°28'0 0.0
2016-Jun-22 06:31N 45°35' W 001°28'0 0.1
2016-Jun-22 05:31N 45°35' W 001°28'0 0.1
2016-Jun-22 04:31N 45°35' W 001°28'0 0.0
2016-Jun-22 03:31N 45°35' W 001°28'0 0.0
2016-Jun-22 01:28N 45°35' W 001°28'0 0.0
2016-Jun-21 23:31N 45°35' W 001°28'0 0.0
2016-Jun-21 21:19N 45°35' W 001°28'0 0.1
2016-Jun-21 20:23N 45°35' W 001°28'0 0.0
2016-Jun-21 19:33N 45°35' W 001°28'0 0.1
2016-Jun-21 18:33N 45°35' W 001°28'0 0.0
2016-Jun-21 17:18N 45°35' W 001°28'0 0.2
2016-Jun-21 16:33N 45°35' W 001°28'8 7.8
2016-Jun-21 15:31N 45°32' W 001°39'5113.0
2016-Jun-21 11:33N 45°19' W 002°50'1713.2
2016-Jun-21 10:16N 45°14' W 003°13'  
Track history (hours):
 
Tides and Currents Weather Stations Pressure Air Temp Water Temp Dewpoint Dewpoint Depression Visibility Wind Speed Wind Dir Waves Ship Positions

Crystal Island

Last reported at 2016-Jun-27 23:32 UTC. Time now 2016-Jun-28 16:59 UTC.
Position N 35°39' W 009°02'.

Length 169 m; draft 9.4 m.

Type: Ship. MMSI: 372562000.

Date/timePositionNaut miles runAvg speedWind from/ knotsBaromVisibWave heightAir tempDewpointWater temp
2016-Jun-27 23:32N 35°39' W 009°02'1212.2
2016-Jun-27 22:33N 35°49' W 009°09'1211.7
2016-Jun-27 21:33N 35°59' W 009°17'1212.0
2016-Jun-27 20:33N 36°09' W 009°25'1211.9
2016-Jun-27 19:33N 36°19' W 009°33'1212.0
2016-Jun-27 18:34N 36°29' W 009°41'1212.0
2016-Jun-27 17:33N 36°41' W 009°43'1312.4
2016-Jun-27 16:32N 36°54' W 009°45'1111.7
2016-Jun-27 15:33N 37°05' W 009°48'1212.2
2016-Jun-27 14:33N 37°17' W 009°50'1212.4
2016-Jun-27 13:33N 37°29' W 009°53'1212.2
2016-Jun-27 12:33N 37°41' W 009°55'1212.0
2016-Jun-27 11:33N 37°53' W 009°57'1212.2
2016-Jun-27 10:33N 38°05' W 009°59'1212.3
2016-Jun-27 09:33N 38°17' W 010°02'1212.1
2016-Jun-27 08:33N 38°29' W 010°04'1212.4
2016-Jun-27 07:33N 38°42' W 010°07'1212.0
2016-Jun-27 06:33N 38°53' W 010°07'1211.5
2016-Jun-27 05:33N 39°05' W 010°07'31910.6
2016-Jun-25 23:33N 44°08' W 007°53'1412.3
2016-Jun-25 22:27N 44°12' W 007°35'26512.1
2016-Jun-25 00:32N 45°32' W 001°39'1212.0
2016-Jun-24 23:31N 45°36' W 001°22'1313.0
2016-Jun-24 22:33N 45°36' W 001°04'1413.7
2016-Jun-24 21:33N 45°25' W 000°52'1211.9
2016-Jun-24 20:33N 45°15' W 000°45'1010.3
2016-Jun-24 19:33N 45°05' W 000°40'11 0.3
2016-Jun-23 07:31N 44°55' W 000°33'56 2.5
2016-Jun-22 09:22N 45°35' W 001°28'0 0.0
2016-Jun-22 08:28N 45°35' W 001°28'0 0.0
2016-Jun-22 07:31N 45°35' W 001°28'0 0.0
2016-Jun-22 06:31N 45°35' W 001°28'0 0.1
2016-Jun-22 05:31N 45°35' W 001°28'0 0.1
2016-Jun-22 04:31N 45°35' W 001°28'0 0.0
2016-Jun-22 03:31N 45°35' W 001°28'0 0.0
2016-Jun-22 01:28N 45°35' W 001°28'0 0.0
2016-Jun-21 23:31N 45°35' W 001°28'0 0.0
2016-Jun-21 21:19N 45°35' W 001°28'0 0.1
2016-Jun-21 20:23N 45°35' W 001°28'0 0.0
2016-Jun-21 19:33N 45°35' W 001°28'0 0.1
2016-Jun-21 18:33N 45°35' W 001°28'0 0.0
2016-Jun-21 17:18N 45°35' W 001°28'0 0.2
2016-Jun-21 16:33N 45°35' W 001°28'8 7.8
2016-Jun-21 15:31N 45°32' W 001°39'5113.0
2016-Jun-21 11:33N 45°19' W 002°50'1713.2
2016-Jun-21 10:16N 45°14' W 003°13'  

Dump ship's entire track history